Time;durP1;ratioP1;P1;durP2;ratioP2;P2;SDS_P1;SDS_P2;PMS_P1;PMS_P2;Temp;Humidity;BMP_temperature;BMP_pressure;BME280_temperature;BME280_humidity;BME280_pressure;Samples;Min_cycle;Max_cycle;Signal;HPM_P1;HPM_P2
2022/05/10 00:02:15;;;;;;;14.85;6.75;;;10.50;99.90;;;;;;5068847;28;20056;-65
2022/05/10 00:04:48;;;;;;;12.20;6.47;;;10.50;99.90;;;;;;5073436;28;20053;-64
2022/05/10 00:07:15;;;;;;;10.90;6.53;;;10.50;99.90;;;;;;5067333;28;20048;-65
2022/05/10 00:09:42;;;;;;;;;;;10.50;99.90;;;;;;5073493;28;20045;-64
2022/05/10 00:12:09;;;;;;;13.05;6.70;;;10.40;99.90;;;;;;5072440;28;19920;-64
2022/05/10 00:14:37;;;;;;;11.70;6.45;;;10.20;99.90;;;;;;5073461;28;20102;-64
2022/05/10 00:17:05;;;;;;;10.50;6.88;;;10.10;99.90;;;;;;5071926;28;20048;-65
2022/05/10 00:19:32;;;;;;;11.50;6.60;;;10.10;99.90;;;;;;5072605;28;20397;-65
2022/05/10 00:21:59;;;;;;;11.93;6.65;;;10.10;99.90;;;;;;5072995;28;20040;-65
2022/05/10 00:24:26;;;;;;;;;;;10.10;99.90;;;;;;5073541;28;20453;-65
2022/05/10 00:26:54;;;;;;;9.82;6.28;;;10.00;99.90;;;;;;5070353;28;19920;-64
2022/05/10 00:29:24;;;;;;;11.05;7.20;;;10.00;99.90;;;;;;5073144;28;20033;-65
2022/05/10 00:31:51;;;;;;;13.60;6.13;;;9.90;99.90;;;;;;5072833;28;20036;-65
2022/05/10 00:34:18;;;;;;;10.07;6.32;;;9.90;99.90;;;;;;5072257;28;20441;-65
2022/05/10 00:36:46;;;;;;;12.38;6.90;;;9.90;99.90;;;;;;5072977;28;20048;-65
2022/05/10 00:39:13;;;;;;;13.85;6.57;;;9.90;99.90;;;;;;5072590;28;20036;-65
2022/05/10 00:41:43;;;;;;;11.95;6.60;;;9.90;99.90;;;;;;5072673;28;20040;-65
2022/05/10 00:44:15;;;;;;;12.50;6.63;;;9.90;99.90;;;;;;5070197;28;20138;-65
2022/05/10 00:46:50;;;;;;;10.60;6.20;;;9.80;99.90;;;;;;5072748;28;20589;-65
2022/05/10 00:49:24;;;;;;;10.68;5.57;;;9.80;99.90;;;;;;5072988;28;20055;-64
2022/05/10 00:52:06;;;;;;;10.85;6.15;;;9.70;99.90;;;;;;5072814;28;20082;-64
2022/05/10 00:54:49;;;;;;;9.90;6.25;;;9.60;99.90;;;;;;5067851;28;20595;-65
2022/05/10 00:57:40;;;;;;;10.38;6.22;;;9.50;99.90;;;;;;5055124;28;20055;-65
2022/05/10 01:00:25;;;;;;;11.80;6.20;;;9.50;99.90;;;;;;5072598;28;20098;-65
2022/05/10 01:03:15;;;;;;;10.27;6.32;;;9.50;99.90;;;;;;5071203;28;20028;-64
2022/05/10 01:06:05;;;;;;;9.90;6.03;;;9.50;99.90;;;;;;5072248;28;20048;-64
2022/05/10 01:08:59;;;;;;;11.02;5.82;;;9.50;99.90;;;;;;5072520;28;20037;-66
2022/05/10 01:11:33;;;;;;;9.60;5.88;;;9.50;99.90;;;;;;5055870;28;20057;-65
2022/05/10 01:14:08;;;;;;;10.13;5.60;;;9.40;99.90;;;;;;5064820;28;20052;-64
2022/05/10 01:16:34;;;;;;;11.88;6.07;;;9.50;99.90;;;;;;5072525;28;20045;-65
2022/05/10 01:19:01;;;;;;;8.90;5.97;;;9.50;99.90;;;;;;5072273;28;20059;-65
2022/05/10 01:21:40;;;;;;;11.15;6.28;;;9.50;99.90;;;;;;5068510;28;20037;-65
2022/05/10 01:24:21;;;;;;;10.73;6.32;;;9.50;99.90;;;;;;5061153;28;20523;-64
2022/05/10 01:26:57;;;;;;;8.18;5.70;;;9.50;99.90;;;;;;5071904;28;20102;-65
2022/05/10 01:29:58;;;;;;;12.88;6.32;;;9.50;99.90;;;;;;5063085;28;20442;-65
2022/05/10 01:35:41;;;;;;;9.20;6.07;;;9.50;99.90;;;;;;5064902;28;20508;-65
2022/05/10 01:38:37;;;;;;;10.80;5.97;;;9.50;99.90;;;;;;5071890;28;20040;-65
2022/05/10 01:41:41;;;;;;;10.52;5.68;;;9.50;99.90;;;;;;5061169;28;20052;-65
2022/05/10 01:44:33;;;;;;;10.63;6.07;;;9.40;99.90;;;;;;5070473;28;20052;-65
2022/05/10 01:47:07;;;;;;;10.73;5.70;;;9.40;99.90;;;;;;5063698;28;20047;-66
2022/05/10 01:50:04;;;;;;;12.10;6.03;;;9.40;99.90;;;;;;5071989;28;20051;-65
2022/05/10 01:52:52;;;;;;;9.65;6.43;;;9.40;99.90;;;;;;5033597;28;20562;-65
2022/05/10 01:55:30;;;;;;;11.55;5.70;;;9.40;99.90;;;;;;5071817;28;20412;-65
2022/05/10 01:58:05;;;;;;;8.88;5.10;;;9.40;99.90;;;;;;5071787;28;20052;-65
2022/05/10 02:00:33;;;;;;;12.95;6.35;;;9.30;99.90;;;;;;5052609;28;20051;-65
2022/05/10 02:03:17;;;;;;;12.43;6.20;;;9.20;99.90;;;;;;5064393;28;20033;-65
2022/05/10 02:05:57;;;;;;;11.85;6.22;;;9.10;99.90;;;;;;5071575;28;20048;-65
2022/05/10 02:08:30;;;;;;;12.15;5.95;;;9.10;99.90;;;;;;5071624;28;20098;-65
2022/05/10 02:11:04;;;;;;;10.93;5.35;;;9.20;99.90;;;;;;5068704;28;20043;-65
2022/05/10 02:13:37;;;;;;;9.57;6.03;;;9.20;99.90;;;;;;5071460;28;20044;-65
2022/05/10 02:16:15;;;;;;;11.77;6.57;;;9.20;99.90;;;;;;5071716;28;20044;-65
2022/05/10 02:18:52;;;;;;;9.10;5.93;;;9.20;99.90;;;;;;5070976;28;20045;-65
2022/05/10 02:21:23;;;;;;;14.20;6.50;;;9.20;99.90;;;;;;5065842;28;20056;-65
2022/05/10 02:24:08;;;;;;;10.52;6.22;;;9.20;99.90;;;;;;5071400;28;20040;-65
2022/05/10 02:26:42;;;;;;;17.25;6.65;;;9.20;99.90;;;;;;5071486;28;20052;-65
2022/05/10 02:29:13;;;;;;;13.90;6.53;;;9.30;99.90;;;;;;5067764;28;20037;-65
2022/05/10 02:34:36;;;;;;;12.00;6.78;;;9.30;99.90;;;;;;5071591;28;20040;-65
2022/05/10 02:37:03;;;;;;;14.80;7.07;;;9.30;99.90;;;;;;5070154;28;20047;-65
2022/05/10 02:39:30;;;;;;;;;;;9.30;99.90;;;;;;5078563;28;20052;-65
2022/05/10 02:41:59;;;;;;;12.05;6.75;;;9.30;99.90;;;;;;5077659;28;19924;-65
2022/05/10 02:44:27;;;;;;;12.27;6.70;;;9.30;99.90;;;;;;5075602;28;20044;-65
2022/05/10 02:46:55;;;;;;;10.55;6.53;;;9.30;99.90;;;;;;5077624;28;20557;-65
2022/05/10 02:49:22;;;;;;;11.95;6.40;;;9.30;99.90;;;;;;5077686;28;20044;-65
2022/05/10 02:51:49;;;;;;;8.65;5.90;;;9.30;99.90;;;;;;5077560;28;20045;-65
2022/05/10 02:54:15;;;;;;;9.53;6.23;;;9.20;99.90;;;;;;5073641;28;20049;-65
2022/05/10 02:56:42;;;;;;;14.95;6.50;;;9.20;99.90;;;;;;5075616;28;20282;-65
2022/05/10 02:59:21;;;;;;;11.27;5.40;;;9.10;99.90;;;;;;5077840;28;20045;-65
2022/05/10 03:01:59;;;;;;;9.93;5.43;;;9.00;99.90;;;;;;5075001;28;20044;-65
2022/05/10 03:04:35;;;;;;;10.13;5.50;;;9.00;99.90;;;;;;5077779;28;20040;-65
2022/05/10 03:07:04;;;;;;;12.38;6.07;;;9.00;99.90;;;;;;5077705;28;20041;-65
2022/05/10 03:09:31;;;;;;;8.95;6.22;;;9.00;99.90;;;;;;5077699;28;20047;-64
2022/05/10 03:11:59;;;;;;;12.20;6.20;;;9.10;99.90;;;;;;5074628;28;20043;-65
2022/05/10 03:14:26;;;;;;;12.48;6.43;;;9.10;99.90;;;;;;5077755;28;20531;-65
2022/05/10 03:16:53;;;;;;;14.93;6.43;;;9.10;99.90;;;;;;5077603;28;20059;-65
2022/05/10 03:19:19;;;;;;;12.65;6.82;;;9.10;99.90;;;;;;5077990;28;20411;-65
2022/05/10 03:21:46;;;;;;;15.07;7.82;;;9.10;99.90;;;;;;5068736;28;20500;-65
2022/05/10 03:24:13;;;;;;;13.70;7.03;;;9.10;99.90;;;;;;5077662;28;20098;-65
2022/05/10 03:26:48;;;;;;;11.05;6.05;;;9.10;99.90;;;;;;5077364;28;20049;-65
2022/05/10 03:29:15;;;;;;;9.48;5.25;;;9.20;99.90;;;;;;5073047;28;20045;-64
2022/05/10 03:31:43;;;;;;;12.02;5.30;;;9.00;99.90;;;;;;5074974;28;20044;-65
2022/05/10 03:36:58;;;;;;;7.03;4.65;;;8.90;99.90;;;;;;5077617;28;20040;-65
2022/05/10 03:39:25;;;;;;;8.50;5.28;;;8.50;99.90;;;;;;5073140;28;20045;-65
2022/05/10 03:41:52;;;;;;;;;;;8.40;99.90;;;;;;5077347;28;20041;-64
2022/05/10 03:44:19;;;;;;;12.43;5.03;;;8.50;99.90;;;;;;5077507;28;19927;-65
2022/05/10 03:46:48;;;;;;;8.85;5.55;;;8.60;99.90;;;;;;5067139;28;20111;-65
2022/05/10 03:49:16;;;;;;;9.90;5.00;;;8.70;99.90;;;;;;5074136;28;20098;-64
2022/05/10 03:51:46;;;;;;;11.90;5.22;;;8.70;99.90;;;;;;5074010;28;20060;-65
2022/05/10 03:54:13;;;;;;;7.82;4.72;;;8.70;99.90;;;;;;5073990;28;20040;-65
2022/05/10 03:56:40;;;;;;;8.95;5.05;;;8.70;99.90;;;;;;5065575;28;20041;-65
2022/05/10 03:59:06;;;;;;;7.28;4.22;;;8.70;99.90;;;;;;5073978;28;20040;-64
2022/05/10 04:01:33;;;;;;;7.47;4.72;;;8.60;99.90;;;;;;5073620;28;20051;-64
2022/05/10 04:04:01;;;;;;;7.55;5.18;;;8.60;99.90;;;;;;5072848;28;20094;-65
2022/05/10 04:06:29;;;;;;;9.30;5.30;;;8.60;99.90;;;;;;5084498;22;20048;-64
2022/05/10 04:08:56;;;;;;;6.40;4.20;;;8.50;99.90;;;;;;5080983;28;20500;-64
2022/05/10 04:11:23;;;;;;;14.55;5.97;;;8.60;99.90;;;;;;5072526;28;20049;-64
2022/05/10 04:13:50;;;;;;;8.73;5.78;;;8.60;99.90;;;;;;5089112;28;20119;-64
2022/05/10 04:16:18;;;;;;;9.07;4.97;;;8.60;99.90;;;;;;5084079;28;20464;-64
2022/05/10 04:18:48;;;;;;;12.98;4.90;;;8.70;99.90;;;;;;5073185;28;20473;-64
2022/05/10 04:21:15;;;;;;;7.63;4.82;;;8.70;99.90;;;;;;5087741;28;20054;-64
2022/05/10 04:23:42;;;;;;;8.90;5.18;;;8.70;99.90;;;;;;5093875;28;20036;-64
2022/05/10 04:26:13;;;;;;;6.85;5.13;;;8.70;99.90;;;;;;5089481;28;20033;-64
2022/05/10 04:28:41;;;;;;;7.82;5.13;;;8.70;99.90;;;;;;5074419;28;20044;-64
2022/05/10 04:31:08;;;;;;;7.40;4.90;;;8.80;99.90;;;;;;5093423;28;20059;-64
2022/05/10 04:33:35;;;;;;;11.15;4.55;;;8.80;99.90;;;;;;5090942;28;20123;-63
2022/05/10 04:36:02;;;;;;;8.18;5.18;;;8.80;99.90;;;;;;5076864;28;20090;-64
2022/05/10 04:38:29;;;;;;;7.05;4.50;;;8.80;99.90;;;;;;5073373;28;20047;-64
2022/05/10 04:43:42;;;;;;;7.18;4.68;;;8.90;99.90;;;;;;5072786;28;20051;-64
2022/05/10 04:46:09;;;;;;;10.05;5.35;;;8.80;99.90;;;;;;5085935;28;20036;-63
2022/05/10 04:48:36;;;;;;;11.52;4.68;;;8.90;99.90;;;;;;5092658;28;20124;-64
2022/05/10 04:51:04;;;;;;;8.25;4.28;;;8.90;99.90;;;;;;5092428;28;20059;-63
2022/05/10 04:53:32;;;;;;;12.00;5.03;;;9.00;99.90;;;;;;5065710;28;20492;-64
2022/05/10 04:55:59;;;;;;;8.35;4.72;;;9.00;99.90;;;;;;5091064;28;20055;-64
2022/05/10 04:58:25;;;;;;;7.78;4.75;;;9.10;99.90;;;;;;5093005;28;20384;-64
2022/05/10 05:00:55;;;;;;;9.75;4.30;;;9.20;99.90;;;;;;5086865;28;20045;-63
2022/05/10 05:03:22;;;;;;;8.75;5.15;;;9.20;99.90;;;;;;5079787;28;20044;-63
2022/05/10 05:05:49;;;;;;;11.20;6.13;;;9.20;99.90;;;;;;5092658;28;20048;-63
2022/05/10 05:08:15;;;;;;;12.68;7.07;;;9.30;99.90;;;;;;5092765;28;20506;-63
2022/05/10 05:10:42;;;;;;;12.35;6.60;;;9.40;99.90;;;;;;5076765;28;20044;-64
2022/05/10 05:13:09;;;;;;;14.13;7.22;;;9.50;99.90;;;;;;5086234;28;20436;-63
2022/05/10 05:15:36;;;;;;;12.73;7.13;;;9.70;99.90;;;;;;5092172;28;20047;-63
2022/05/10 05:18:03;;;;;;;11.88;7.07;;;9.80;99.90;;;;;;5088637;28;20067;-63
2022/05/10 05:20:32;;;;;;;13.13;6.97;;;9.90;99.90;;;;;;5080010;28;20090;-63
2022/05/10 05:22:58;;;;;;;12.63;6.93;;;10.00;99.90;;;;;;5072608;28;20056;-64
2022/05/10 05:25:26;;;;;;;10.90;6.43;;;10.10;99.90;;;;;;5072375;28;20044;-64
2022/05/10 05:27:53;;;;;;;11.43;6.53;;;10.20;99.90;;;;;;5071764;28;20040;-64
2022/05/10 05:30:19;;;;;;;11.13;6.13;;;10.20;99.90;;;;;;5086989;28;20515;-64
2022/05/10 05:32:46;;;;;;;10.82;6.93;;;10.30;99.90;;;;;;5092665;28;20492;-64
2022/05/10 05:35:13;;;;;;;14.40;6.88;;;10.30;99.90;;;;;;5083931;28;20055;-63
2022/05/10 05:37:40;;;;;;;17.10;6.95;;;10.30;99.90;;;;;;5081600;28;20079;-63
2022/05/10 05:40:11;;;;;;;15.90;6.75;;;10.40;99.90;;;;;;5091979;28;20055;-63
2022/05/10 05:42:45;;;;;;;13.23;6.20;;;10.40;99.90;;;;;;5091904;28;20076;-64
2022/05/10 05:45:14;;;;;;;11.45;6.20;;;10.50;99.90;;;;;;5080087;28;20055;-64
2022/05/10 05:47:41;;;;;;;11.13;6.50;;;10.60;99.90;;;;;;5073916;28;20049;-63
2022/05/10 05:50:10;;;;;;;10.85;6.95;;;10.70;99.90;;;;;;5071471;28;20040;-63
2022/05/10 05:52:37;;;;;;;14.02;6.03;;;10.70;99.90;;;;;;5071513;28;20037;-64
2022/05/10 05:55:06;;;;;;;8.60;5.72;;;10.80;99.90;;;;;;5084811;28;20063;-64
2022/05/10 05:57:34;;;;;;;9.45;6.10;;;10.90;99.90;;;;;;5092031;28;20043;-64
2022/05/10 06:00:01;;;;;;;9.57;5.93;;;11.00;99.90;;;;;;5091570;28;20487;-64
2022/05/10 06:02:37;;;;;;;12.15;6.20;;;11.00;99.90;;;;;;5081416;28;20044;-64
2022/05/10 06:05:05;;;;;;;10.88;5.55;;;11.10;99.90;;;;;;5084716;28;20048;-64
2022/05/10 06:07:34;;;;;;;8.23;5.38;;;11.10;99.90;;;;;;5091988;28;20040;-64
2022/05/10 06:10:00;;;;;;;8.30;5.50;;;11.30;99.90;;;;;;5091063;28;20054;-64
2022/05/10 06:12:27;;;;;;;10.27;5.70;;;11.30;99.90;;;;;;5082029;28;20041;-64
2022/05/10 06:14:55;;;;;;;8.23;5.63;;;11.40;99.90;;;;;;5082964;28;20040;-64
2022/05/10 06:17:23;;;;;;;9.82;5.28;;;11.50;99.90;;;;;;5091255;28;20047;-64
2022/05/10 06:19:50;;;;;;;9.50;5.20;;;11.60;99.90;;;;;;5075767;28;20050;-64
2022/05/10 06:22:17;;;;;;;14.02;5.78;;;11.80;99.90;;;;;;5085433;28;20123;-64
2022/05/10 06:24:44;;;;;;;10.27;5.47;;;11.80;99.90;;;;;;5091514;28;20051;-64
2022/05/10 06:27:15;;;;;;;10.55;5.97;;;11.90;99.90;;;;;;5090971;28;20036;-64
2022/05/10 06:29:42;;;;;;;12.13;5.65;;;11.90;99.90;;;;;;5078610;28;20043;-64
2022/05/10 06:32:11;;;;;;;12.23;6.05;;;12.10;99.90;;;;;;5077342;28;20443;-63
2022/05/10 06:34:40;;;;;;;9.05;5.18;;;12.30;99.90;;;;;;5070650;28;20507;-64
2022/05/10 06:39:52;;;;;;;10.73;4.70;;;12.50;99.90;;;;;;5082095;28;20055;-64
2022/05/10 06:42:24;;;;;;;9.15;5.10;;;12.70;99.90;;;;;;5091302;28;20044;-64
2022/05/10 06:44:51;;;;;;;10.75;4.97;;;12.80;99.90;;;;;;5064241;28;20040;-64
2022/05/10 06:47:18;;;;;;;9.38;4.05;;;13.00;99.90;;;;;;5085902;28;20052;-64
2022/05/10 06:49:45;;;;;;;8.10;4.70;;;13.10;99.90;;;;;;5090362;28;20105;-64
2022/05/10 06:52:17;;;;;;;10.93;4.63;;;13.30;99.90;;;;;;5088363;28;20429;-64
2022/05/10 06:54:44;;;;;;;11.02;5.68;;;13.40;99.90;;;;;;5072731;28;20112;-64
2022/05/10 06:57:11;;;;;;;8.05;4.28;;;13.60;99.90;;;;;;5090504;28;20043;-64
2022/05/10 06:59:38;;;;;;;11.10;4.40;;;13.80;99.90;;;;;;5091166;28;20114;-64
2022/05/10 07:02:05;;;;;;;9.00;4.07;;;13.90;99.90;;;;;;5085313;28;20037;-64
2022/05/10 07:04:32;;;;;;;8.90;4.50;;;14.10;99.90;;;;;;5070928;28;20040;-64
2022/05/10 07:07:00;;;;;;;6.75;4.50;;;14.20;99.90;;;;;;5090265;28;20040;-64
2022/05/10 07:09:26;;;;;;;9.63;4.20;;;14.30;99.90;;;;;;5087662;28;20041;-64
2022/05/10 07:11:59;;;;;;;5.88;4.38;;;14.30;99.90;;;;;;5074203;28;20044;-64
2022/05/10 07:14:26;;;;;;;;;;;14.40;99.90;;;;;;5091305;28;20413;-64
2022/05/10 07:16:52;;;;;;;6.18;3.75;;;14.40;99.90;;;;;;5090844;28;19927;-64
2022/05/10 07:19:19;;;;;;;5.95;3.92;;;14.40;99.90;;;;;;5077516;28;20534;-64
2022/05/10 07:21:49;;;;;;;9.15;4.55;;;14.60;99.90;;;;;;5080829;28;20055;-64
2022/05/10 07:24:19;;;;;;;7.00;3.50;;;14.70;99.90;;;;;;5094684;28;20122;-64
2022/05/10 07:26:46;;;;;;;5.30;3.45;;;14.70;99.90;;;;;;5094625;28;20036;-64
2022/05/10 07:29:14;;;;;;;5.13;2.88;;;14.90;99.90;;;;;;5087098;28;20047;-64
2022/05/10 07:31:42;;;;;;;7.82;3.58;;;15.10;99.90;;;;;;5085478;28;20044;-64
2022/05/10 07:34:10;;;;;;;3.85;2.85;;;15.30;99.90;;;;;;5074323;28;20047;-64
2022/05/10 07:36:38;;;;;;;4.05;3.00;;;15.30;99.90;;;;;;5074299;28;20044;-64
2022/05/10 07:39:08;;;;;;;5.88;3.10;;;15.50;99.90;;;;;;5074278;28;20048;-62
2022/05/10 07:41:36;;;;;;;6.15;3.08;;;15.70;99.90;;;;;;5074120;28;20037;-64
2022/05/10 07:44:04;;;;;;;6.13;2.90;;;15.80;99.90;;;;;;5094511;28;20044;-64
2022/05/10 07:46:31;;;;;;;5.68;3.50;;;15.90;99.90;;;;;;5094012;28;20054;-63
2022/05/10 07:48:58;;;;;;;9.60;2.97;;;16.00;99.90;;;;;;5089177;28;20044;-64
2022/05/10 07:51:25;;;;;;;3.65;2.60;;;16.20;99.90;;;;;;5081158;28;20032;-64
2022/05/10 07:53:52;;;;;;;;;;;16.40;99.90;;;;;;5094732;28;20059;-64
2022/05/10 07:56:19;;;;;;;9.82;3.55;;;16.50;99.90;;;;;;5094149;28;19970;-63
2022/05/10 07:58:53;;;;;;;3.80;2.75;;;16.70;99.90;;;;;;5078824;28;20059;-64
2022/05/10 08:01:20;;;;;;;4.32;2.50;;;16.90;99.90;;;;;;5081898;28;20043;-64
2022/05/10 08:03:47;;;;;;;4.55;2.63;;;16.90;99.90;;;;;;5077249;28;20044;-63
2022/05/10 08:06:47;;;;;;;4.95;2.45;;;17.00;99.90;;;;;;5079343;28;20063;-63
2022/05/10 08:09:15;;;;;;;6.25;3.20;;;17.10;99.90;;;;;;5052424;28;20044;-63
2022/05/10 08:11:43;;;;;;;3.65;2.47;;;17.20;99.90;;;;;;5072795;28;20124;-63
2022/05/10 08:14:10;;;;;;;4.32;2.55;;;17.50;99.90;;;;;;5078677;28;20072;-63
2022/05/10 08:16:37;;;;;;;5.05;2.80;;;17.70;99.90;;;;;;5076691;28;20037;-63
2022/05/10 08:19:07;;;;;;;4.03;2.40;;;17.70;99.90;;;;;;5073815;28;20041;-63
2022/05/10 08:21:34;;;;;;;5.82;2.50;;;17.60;99.90;;;;;;5073415;28;20052;-63
2022/05/10 08:24:01;;;;;;;3.63;2.83;;;17.70;99.90;;;;;;5094078;28;20436;-63
2022/05/10 08:26:28;;;;;;;10.00;3.53;;;17.90;99.90;;;;;;5093783;28;20055;-63
2022/05/10 08:28:54;;;;;;;5.13;2.47;;;18.20;99.90;;;;;;5085664;28;20041;-64
2022/05/10 08:31:24;;;;;;;3.75;2.53;;;18.20;99.90;;;;;;5080220;28;20036;-64
2022/05/10 08:33:51;;;;;;;4.43;2.38;;;18.40;99.90;;;;;;5093187;28;20538;-64
2022/05/10 08:36:18;;;;;;;3.22;2.30;;;18.40;99.90;;;;;;5093462;28;20044;-63
2022/05/10 08:38:45;;;;;;;4.28;2.38;;;18.50;99.90;;;;;;5080559;28;20044;-63
2022/05/10 08:41:16;;;;;;;3.80;2.45;;;18.60;99.90;;;;;;5087052;28;20060;-63
2022/05/10 08:43:46;;;;;;;4.68;2.20;;;18.60;99.90;;;;;;5080008;28;20042;-63
2022/05/10 08:46:31;;;;;;;4.60;2.65;;;18.60;99.90;;;;;;5080730;28;20055;-63
2022/05/10 08:49:03;;;;;;;3.25;2.08;;;18.70;99.90;;;;;;5078364;28;20124;-63
2022/05/10 08:51:31;;;;;;;3.25;2.38;;;19.00;99.90;;;;;;5072956;28;20082;-63
2022/05/10 08:53:58;;;;;;;;;;;19.20;99.90;;;;;;5072058;28;20041;-63
2022/05/10 08:56:32;;;;;;;2.67;1.92;;;19.20;99.90;;;;;;5072755;28;20023;-63
2022/05/10 08:59:21;;;;;;;4.03;2.60;;;19.50;99.90;;;;;;5072152;28;20041;-63
2022/05/10 09:02:26;;;;;;;;;;;19.50;99.90;;;;;;5072119;28;20043;-63
2022/05/10 09:05:16;;;;;;;6.93;2.33;;;19.70;99.90;;;;;;4997654;28;19964;-63
2022/05/10 09:07:51;;;;;;;3.50;2.53;;;19.70;99.90;;;;;;4995257;28;20053;-64
2022/05/10 09:10:37;;;;;;;2.65;2.17;;;19.80;99.90;;;;;;5048729;28;20055;-64
2022/05/10 09:13:08;;;;;;;3.30;2.20;;;19.90;99.90;;;;;;5071881;28;20033;-64
2022/05/10 09:15:39;;;;;;;3.38;2.28;;;20.20;99.90;;;;;;5071809;28;20054;-64
2022/05/10 09:18:28;;;;;;;3.15;2.40;;;20.20;99.90;;;;;;5071859;28;20029;-63
2022/05/10 09:21:18;;;;;;;4.55;2.60;;;20.30;99.90;;;;;;5072115;28;20036;-64
2022/05/10 09:24:12;;;;;;;2.97;2.17;;;20.40;99.90;;;;;;5072658;28;20044;-64
2022/05/10 09:26:44;;;;;;;6.15;2.53;;;20.60;99.90;;;;;;5072472;28;20044;-63
2022/05/10 09:29:29;;;;;;;4.38;2.25;;;20.70;99.90;;;;;;5077547;28;20040;-63
2022/05/10 09:34:55;;;;;;;4.18;2.30;;;20.90;99.90;;;;;;5081995;28;20064;-63
2022/05/10 09:37:32;;;;;;;4.20;2.35;;;20.90;99.90;;;;;;5078806;28;20051;-63
2022/05/10 09:40:05;;;;;;;2.17;1.70;;;20.90;99.90;;;;;;5091974;28;20502;-63
2022/05/10 09:42:42;;;;;;;9.48;2.53;;;21.10;99.90;;;;;;5082312;28;20049;-64
2022/05/10 09:45:25;;;;;;;4.75;2.10;;;20.90;99.90;;;;;;5069038;28;20044;-64
2022/05/10 09:47:59;;;;;;;4.20;2.22;;;20.80;99.90;;;;;;5090023;28;20471;-63
2022/05/10 09:50:39;;;;;;;3.80;2.17;;;20.90;99.90;;;;;;5075100;28;20071;-64
2022/05/10 09:53:20;;;;;;;5.60;2.70;;;21.20;99.90;;;;;;5070653;28;20044;-63
2022/05/10 09:56:00;;;;;;;3.17;2.42;;;21.20;99.90;;;;;;5070706;28;20050;-63
2022/05/10 09:58:34;;;;;;;5.75;2.33;;;21.20;99.90;;;;;;5076247;28;20093;-63
2022/05/10 10:01:04;;;;;;;4.43;2.10;;;21.30;99.90;;;;;;5073408;28;20392;-63
2022/05/10 10:03:37;;;;;;;4.05;2.28;;;21.50;99.90;;;;;;5070864;28;20036;-63
2022/05/10 10:06:21;;;;;;;2.88;2.25;;;21.60;99.70;;;;;;5070497;28;20028;-64
2022/05/10 10:08:52;;;;;;;5.63;2.90;;;21.50;99.90;;;;;;5070422;28;20174;-63
2022/05/10 10:11:38;;;;;;;3.67;2.20;;;21.50;98.70;;;;;;5095576;22;20048;-65
2022/05/10 10:14:08;;;;;;;7.80;2.20;;;21.50;99.90;;;;;;5071265;28;20040;-64
2022/05/10 10:16:48;;;;;;;4.30;2.22;;;21.60;99.90;;;;;;5060309;28;20044;-65
2022/05/10 10:19:18;;;;;;;4.97;2.10;;;21.80;99.90;;;;;;5080361;28;20140;-64
2022/05/10 10:21:58;;;;;;;4.15;2.65;;;22.00;99.90;;;;;;5075543;28;20037;-64
2022/05/10 10:24:40;;;;;;;5.75;2.20;;;22.10;99.90;;;;;;5069569;28;20036;-64
2022/05/10 10:27:17;;;;;;;5.82;2.08;;;22.10;98.30;;;;;;5070717;28;20033;-64
2022/05/10 10:29:57;;;;;;;4.55;2.28;;;22.20;98.80;;;;;;5068351;28;20078;-65
2022/05/10 10:32:47;;;;;;;5.25;2.28;;;22.20;99.60;;;;;;5069014;28;20059;-64
2022/05/10 10:35:53;;;;;;;3.85;2.20;;;22.20;98.30;;;;;;5070584;28;20123;-64
2022/05/10 10:38:36;;;;;;;6.57;2.50;;;22.30;97.90;;;;;;5069859;28;20047;-64
2022/05/10 10:41:08;;;;;;;5.47;2.03;;;22.60;98.20;;;;;;5068642;28;20467;-66
2022/05/10 10:44:00;;;;;;;6.93;2.78;;;22.70;96.30;;;;;;5062196;28;20044;-64
2022/05/10 10:46:50;;;;;;;3.78;2.40;;;22.80;96.60;;;;;;5065278;28;20040;-65
2022/05/10 10:49:24;;;;;;;3.38;2.35;;;22.90;95.30;;;;;;5062920;28;20056;-65
2022/05/10 10:51:51;;;;;;;5.85;2.33;;;23.10;96.60;;;;;;5069922;28;20052;-65
2022/05/10 10:54:20;;;;;;;6.90;2.03;;;23.10;96.30;;;;;;5052344;28;20416;-65
2022/05/10 10:57:24;;;;;;;8.18;2.10;;;23.20;94.90;;;;;;5071744;28;20037;-65
2022/05/10 11:00:08;;;;;;;5.63;2.45;;;23.50;94.20;;;;;;5073893;28;20037;-65
2022/05/10 11:03:00;;;;;;;5.68;2.30;;;23.10;93.20;;;;;;5074129;28;20037;-65
2022/05/10 11:05:59;;;;;;;3.22;2.45;;;22.80;93.70;;;;;;5071530;28;20064;-66
2022/05/10 11:08:34;;;;;;;3.92;2.47;;;22.90;93.00;;;;;;5073542;28;20570;-65
2022/05/10 11:11:39;;;;;;;2.47;2.28;;;23.40;92.90;;;;;;5072422;28;20045;-65
2022/05/10 11:14:28;;;;;;;4.10;2.35;;;23.80;92.70;;;;;;5073598;28;20036;-65
2022/05/10 11:17:24;;;;;;;2.78;1.92;;;23.90;93.00;;;;;;5074169;28;20044;-65
2022/05/10 11:19:54;;;;;;;4.88;2.63;;;24.00;91.80;;;;;;5063413;28;20073;-65
2022/05/10 11:22:37;;;;;;;3.40;2.08;;;24.30;92.20;;;;;;5061849;28;20382;-65
2022/05/10 11:25:24;;;;;;;4.70;2.17;;;24.10;91.20;;;;;;5054730;28;20056;-66
2022/05/10 11:28:24;;;;;;;4.47;2.35;;;24.30;92.70;;;;;;5054679;28;20099;-65
2022/05/10 11:31:18;;;;;;;2.72;2.20;;;24.80;93.40;;;;;;5065940;28;20137;-66
2022/05/10 11:34:21;;;;;;;6.18;2.80;;;24.70;89.70;;;;;;5074547;28;20548;-66
2022/05/10 11:36:52;;;;;;;5.28;2.60;;;24.30;90.20;;;;;;5074413;28;20109;-66
2022/05/10 11:39:28;;;;;;;5.30;2.72;;;23.90;91.80;;;;;;5056044;28;20067;-66
2022/05/10 11:42:20;;;;;;;10.00;3.38;;;23.80;92.50;;;;;;5065600;28;20510;-66
2022/05/10 11:45:28;;;;;;;5.18;3.35;;;23.80;93.40;;;;;;5074317;28;20044;-66
2022/05/10 11:47:56;;;;;;;9.27;3.47;;;23.70;93.50;;;;;;5065397;28;20033;-66
2022/05/10 11:51:38;;;;;;;3.45;2.95;;;23.50;94.80;;;;;;5058337;28;20128;-66
2022/05/10 11:53:46;;;;;;;15.40;3.70;;;23.30;93.80;;;;;;5054330;28;20041;-66
2022/05/10 11:56:15;;;;;;;6.78;3.15;;;22.90;95.60;;;;;;5063499;28;20563;-66
2022/05/10 11:58:42;;;;;;;5.70;3.20;;;22.70;94.20;;;;;;5056058;28;20045;-66
2022/05/10 12:01:33;;;;;;;4.47;3.28;;;22.60;95.70;;;;;;5053230;28;20041;-66
2022/05/10 12:04:00;;;;;;;5.80;2.75;;;22.50;95.70;;;;;;5060108;28;20048;-66
2022/05/10 12:06:26;;;;;;;3.90;3.28;;;22.50;96.70;;;;;;5069453;28;20487;-66
2022/05/10 12:09:04;;;;;;;4.78;2.90;;;22.50;97.50;;;;;;5061177;28;20037;-66
2022/05/10 12:11:30;;;;;;;3.63;2.83;;;22.50;95.90;;;;;;5053203;28;20045;-66
2022/05/10 12:22:45;;;;;;;5.05;2.78;;;22.70;96.20;;;;;;5062179;28;20101;-66
2022/05/10 12:25:50;;;;;;;3.17;2.88;;;22.40;94.90;;;;;;5053920;28;20110;-66
2022/05/10 12:28:38;;;;;;;3.92;3.15;;;22.50;94.40;;;;;;5054369;28;20407;-66
2022/05/10 12:31:31;;;;;;;7.20;3.15;;;23.40;95.20;;;;;;5057557;28;20496;-66
2022/05/10 12:33:58;;;;;;;4.70;3.20;;;24.20;92.90;;;;;;5042776;28;20064;-66
2022/05/10 12:36:35;;;;;;;5.78;3.38;;;24.50;93.90;;;;;;5073334;28;20059;-66
2022/05/10 12:39:26;;;;;;;5.95;2.60;;;24.50;90.30;;;;;;5064709;28;20037;-67
2022/05/10 12:42:06;;;;;;;3.78;3.03;;;24.80;88.60;;;;;;5053256;28;20051;-66
2022/05/10 12:45:08;;;;;;;3.92;3.05;;;25.10;87.80;;;;;;5062746;28;20064;-66
2022/05/10 12:48:05;;;;;;;5.97;3.33;;;25.60;90.40;;;;;;5030423;28;20059;-66
2022/05/10 12:50:42;;;;;;;5.27;3.43;;;25.80;87.60;;;;;;5000563;28;20051;-66
2022/05/10 12:53:25;;;;;;;8.43;3.80;;;25.40;90.00;;;;;;5067900;28;20051;-66
2022/05/10 12:56:04;;;;;;;7.50;3.75;;;25.00;90.30;;;;;;5071715;28;20039;-66
2022/05/10 12:58:39;;;;;;;7.57;3.75;;;25.00;91.20;;;;;;5071957;28;20039;-66
2022/05/10 13:01:07;;;;;;;5.82;3.50;;;25.00;90.40;;;;;;5068682;28;20040;-66
2022/05/10 13:03:45;;;;;;;3.80;3.05;;;24.80;90.00;;;;;;5071778;28;20040;-66
2022/05/10 13:06:27;;;;;;;5.55;3.40;;;24.60;89.70;;;;;;5070623;28;20079;-65
2022/05/10 13:09:39;;;;;;;5.57;2.80;;;24.50;89.90;;;;;;5071110;28;20047;-66
2022/05/10 13:12:09;;;;;;;4.50;2.80;;;24.60;87.40;;;;;;5054926;28;20055;-66
2022/05/10 13:14:52;;;;;;;4.82;2.72;;;24.50;84.40;;;;;;5070415;28;20043;-66
2022/05/10 13:17:31;;;;;;;5.45;3.00;;;24.60;84.00;;;;;;5067950;28;20112;-66
2022/05/10 13:19:59;;;;;;;3.60;3.20;;;24.80;85.00;;;;;;5055446;28;20040;-66
2022/05/10 13:22:27;;;;;;;4.75;2.70;;;25.00;85.50;;;;;;5071946;28;20519;-66
2022/05/10 13:24:56;;;;;;;5.85;2.90;;;24.80;87.30;;;;;;5072287;28;20036;-66
2022/05/10 13:27:32;;;;;;;4.00;3.40;;;24.50;85.30;;;;;;5065755;28;20037;-66
2022/05/10 13:30:15;;;;;;;5.30;2.70;;;24.40;85.50;;;;;;5055606;28;20040;-65
2022/05/10 13:32:45;;;;;;;5.13;2.90;;;24.60;86.70;;;;;;5072037;28;20044;-66
2022/05/10 13:35:23;;;;;;;5.38;3.00;;;24.60;85.40;;;;;;5071313;28;20172;-66
2022/05/10 13:38:05;;;;;;;4.13;3.03;;;24.60;85.00;;;;;;5061022;28;20047;-66
2022/05/10 13:40:46;;;;;;;3.40;3.05;;;24.80;86.90;;;;;;5051702;28;20037;-66
2022/05/10 13:43:18;;;;;;;5.15;2.90;;;25.20;86.90;;;;;;5051802;28;20055;-66
2022/05/10 13:46:09;;;;;;;4.65;3.03;;;25.50;84.70;;;;;;5060750;28;20059;-66
2022/05/10 13:48:39;;;;;;;4.75;2.67;;;25.30;80.50;;;;;;5047124;28;20140;-66
2022/05/10 13:51:18;;;;;;;4.13;3.20;;;25.30;82.60;;;;;;5052085;28;20409;-66